sensor_id;sensor_type;location;lat;lon;timestamp;pressure;altitude;pressure_sealevel;temperature;humidity
65054;BME280;51639;47.828;35.038;2023-04-04T00:05:11;99999.53;;;11.32;100.00
65054;BME280;51639;47.828;35.038;2023-04-04T00:20:13;99993.09;;;11.25;100.00
65054;BME280;51639;47.828;35.038;2023-04-04T00:35:15;99996.06;;;11.31;100.00
65054;BME280;51639;47.828;35.038;2023-04-04T00:50:17;100004.13;;;11.02;100.00
65054;BME280;51639;47.828;35.038;2023-04-04T01:05:19;99998.69;;;10.66;100.00
65054;BME280;51639;47.828;35.038;2023-04-04T01:20:24;100003.47;;;10.42;100.00
65054;BME280;51639;47.828;35.038;2023-04-04T01:35:36;100008.78;;;10.30;100.00
65054;BME280;51639;47.828;35.038;2023-04-04T01:50:39;100013.78;;;10.31;100.00
65054;BME280;51639;47.828;35.038;2023-04-04T02:05:42;100030.81;;;10.32;100.00
65054;BME280;51639;47.828;35.038;2023-04-04T02:20:44;100025.47;;;10.28;100.00
65054;BME280;51639;47.828;35.038;2023-04-04T02:35:46;100017.69;;;10.30;100.00
65054;BME280;51639;47.828;35.038;2023-04-04T02:50:48;100017.16;;;10.15;100.00
65054;BME280;51639;47.828;35.038;2023-04-04T03:05:50;100033.16;;;10.10;100.00
65054;BME280;51639;47.828;35.038;2023-04-04T03:20:53;100042.28;;;10.19;100.00
65054;BME280;51639;47.828;35.038;2023-04-04T03:35:55;100056.66;;;10.16;100.00
65054;BME280;51639;47.828;35.038;2023-04-04T03:50:57;100070.06;;;10.27;100.00
65054;BME280;51639;47.828;35.038;2023-04-04T04:05:59;100096.72;;;10.32;100.00
65054;BME280;51639;47.828;35.038;2023-04-04T04:21:01;100108.81;;;10.47;100.00
65054;BME280;51639;47.828;35.038;2023-04-04T04:36:05;100111.19;;;10.85;100.00
65054;BME280;51639;47.828;35.038;2023-04-04T04:51:07;100119.81;;;11.16;100.00
65054;BME280;51639;47.828;35.038;2023-04-04T05:06:09;100118.50;;;11.76;100.00
65054;BME280;51639;47.828;35.038;2023-04-04T05:21:12;100134.41;;;12.52;100.00
65054;BME280;51639;47.828;35.038;2023-04-04T05:36:13;100151.38;;;13.26;100.00
65054;BME280;51639;47.828;35.038;2023-04-04T05:51:17;100156.03;;;14.15;100.00
65054;BME280;51639;47.828;35.038;2023-04-04T06:06:19;100164.75;;;15.00;100.00
65054;BME280;51639;47.828;35.038;2023-04-04T06:21:21;100154.00;;;15.77;100.00
65054;BME280;51639;47.828;35.038;2023-04-04T06:36:23;100164.44;;;16.83;100.00
65054;BME280;51639;47.828;35.038;2023-04-04T06:51:25;100169.47;;;17.45;100.00
65054;BME280;51639;47.828;35.038;2023-04-04T07:06:28;100171.91;;;16.46;100.00
65054;BME280;51639;47.828;35.038;2023-04-04T07:21:30;100155.59;;;18.05;100.00
65054;BME280;51639;47.828;35.038;2023-04-04T07:36:33;100157.28;;;18.80;100.00
65054;BME280;51639;47.828;35.038;2023-04-04T07:51:35;100147.13;;;18.18;100.00
65054;BME280;51639;47.828;35.038;2023-04-04T08:06:37;100140.16;;;17.84;100.00
65054;BME280;51639;47.828;35.038;2023-04-04T08:21:40;100147.38;;;17.39;100.00
65054;BME280;51639;47.828;35.038;2023-04-04T08:36:42;100117.44;;;18.90;100.00
65054;BME280;51639;47.828;35.038;2023-04-04T08:51:44;100120.47;;;19.71;100.00
65054;BME280;51639;47.828;35.038;2023-04-04T09:06:47;100098.88;;;18.85;100.00
65054;BME280;51639;47.828;35.038;2023-04-04T09:21:49;100090.91;;;18.87;100.00
65054;BME280;51639;47.828;35.038;2023-04-04T09:36:52;100100.09;;;20.03;100.00
65054;BME280;51639;47.828;35.038;2023-04-04T09:51:54;100096.34;;;20.27;100.00
65054;BME280;51639;47.828;35.038;2023-04-04T10:06:58;100092.97;;;20.17;100.00
65054;BME280;51639;47.828;35.038;2023-04-04T10:22:00;100080.06;;;19.83;100.00
65054;BME280;51639;47.828;35.038;2023-04-04T10:37:07;100077.44;;;20.40;100.00
65054;BME280;51639;47.828;35.038;2023-04-04T10:52:14;100081.16;;;21.20;100.00
65054;BME280;51639;47.828;35.038;2023-04-04T11:07:16;100068.22;;;21.37;100.00
65054;BME280;51639;47.828;35.038;2023-04-04T11:22:21;100050.53;;;20.87;100.00
65054;BME280;51639;47.828;35.038;2023-04-04T11:37:24;100029.22;;;21.78;100.00
65054;BME280;51639;47.828;35.038;2023-04-04T11:52:32;100038.22;;;20.51;100.00
65054;BME280;51639;47.828;35.038;2023-04-04T12:07:35;100031.19;;;19.42;100.00
65054;BME280;51639;47.828;35.038;2023-04-04T12:22:39;100026.38;;;19.02;100.00
65054;BME280;51639;47.828;35.038;2023-04-04T12:38:01;99995.72;;;18.74;100.00
65054;BME280;51639;47.828;35.038;2023-04-04T12:53:04;99962.91;;;18.86;100.00
65054;BME280;51639;47.828;35.038;2023-04-04T13:08:26;99958.31;;;18.62;100.00
65054;BME280;51639;47.828;35.038;2023-04-04T13:23:28;99984.56;;;18.63;100.00
65054;BME280;51639;47.828;35.038;2023-04-04T13:38:31;99971.19;;;18.12;100.00
65054;BME280;51639;47.828;35.038;2023-04-04T13:53:34;99956.78;;;18.17;100.00
65054;BME280;51639;47.828;35.038;2023-04-04T14:08:37;99957.06;;;18.04;100.00
65054;BME280;51639;47.828;35.038;2023-04-04T14:23:39;99958.53;;;17.76;100.00
65054;BME280;51639;47.828;35.038;2023-04-04T14:38:41;99979.66;;;17.70;100.00
65054;BME280;51639;47.828;35.038;2023-04-04T14:53:45;99968.19;;;17.71;100.00
65054;BME280;51639;47.828;35.038;2023-04-04T15:08:47;99953.44;;;17.69;100.00
65054;BME280;51639;47.828;35.038;2023-04-04T15:23:50;99937.53;;;17.25;100.00
65054;BME280;51639;47.828;35.038;2023-04-04T15:38:52;99943.31;;;17.03;100.00
65054;BME280;51639;47.828;35.038;2023-04-04T15:53:54;99944.88;;;16.72;100.00
65054;BME280;51639;47.828;35.038;2023-04-04T16:08:57;99930.66;;;16.40;100.00
65054;BME280;51639;47.828;35.038;2023-04-04T16:23:59;99910.66;;;16.16;100.00
65054;BME280;51639;47.828;35.038;2023-04-04T16:39:01;99893.66;;;16.02;100.00
65054;BME280;51639;47.828;35.038;2023-04-04T16:54:03;99882.16;;;15.71;100.00
65054;BME280;51639;47.828;35.038;2023-04-04T17:09:05;99891.28;;;15.77;100.00
65054;BME280;51639;47.828;35.038;2023-04-04T17:24:08;99882.31;;;15.77;100.00
65054;BME280;51639;47.828;35.038;2023-04-04T17:39:10;99887.00;;;15.67;100.00
65054;BME280;51639;47.828;35.038;2023-04-04T17:54:12;99878.06;;;15.57;100.00
65054;BME280;51639;47.828;35.038;2023-04-04T18:09:14;99848.88;;;15.54;100.00
65054;BME280;51639;47.828;35.038;2023-04-04T18:24:18;99835.66;;;15.25;100.00
65054;BME280;51639;47.828;35.038;2023-04-04T18:39:20;99832.16;;;15.25;100.00
65054;BME280;51639;47.828;35.038;2023-04-04T18:54:22;99795.88;;;15.06;100.00
65054;BME280;51639;47.828;35.038;2023-04-04T19:09:25;99795.25;;;14.84;100.00
65054;BME280;51639;47.828;35.038;2023-04-04T19:39:52;99756.69;;;14.91;100.00
65054;BME280;51639;47.828;35.038;2023-04-04T19:54:54;99744.22;;;14.90;100.00
65054;BME280;51639;47.828;35.038;2023-04-04T20:09:56;99733.16;;;14.93;100.00
65054;BME280;51639;47.828;35.038;2023-04-04T20:25:09;99716.00;;;14.93;100.00
65054;BME280;51639;47.828;35.038;2023-04-04T20:40:12;99706.91;;;14.68;100.00
65054;BME280;51639;47.828;35.038;2023-04-04T20:55:34;99694.16;;;14.75;100.00
65054;BME280;51639;47.828;35.038;2023-04-04T21:10:50;99701.44;;;14.78;100.00
65054;BME280;51639;47.828;35.038;2023-04-04T21:25:58;99672.44;;;14.71;100.00
65054;BME280;51639;47.828;35.038;2023-04-04T21:41:11;99645.91;;;14.53;100.00
65054;BME280;51639;47.828;35.038;2023-04-04T21:56:14;99626.97;;;14.41;100.00
65054;BME280;51639;47.828;35.038;2023-04-04T22:11:18;99606.75;;;14.56;100.00
65054;BME280;51639;47.828;35.038;2023-04-04T22:26:20;99608.56;;;14.41;100.00
65054;BME280;51639;47.828;35.038;2023-04-04T22:41:30;99602.81;;;14.57;100.00
65054;BME280;51639;47.828;35.038;2023-04-04T22:56:32;99592.50;;;14.61;100.00
65054;BME280;51639;47.828;35.038;2023-04-04T23:11:38;99588.22;;;14.70;100.00
65054;BME280;51639;47.828;35.038;2023-04-04T23:26:40;99580.94;;;14.66;100.00
65054;BME280;51639;47.828;35.038;2023-04-04T23:41:42;99571.84;;;14.51;100.00
65054;BME280;51639;47.828;35.038;2023-04-04T23:56:47;99570.19;;;14.45;100.00
